Time;durP1;ratioP1;P1;durP2;ratioP2;P2;SDS_P1;SDS_P2;PMS_P1;PMS_P2;Temp;Humidity;BMP_temperature;BMP_pressure;BME280_temperature;BME280_humidity;BME280_pressure;Samples;Min_cycle;Max_cycle;Signal;HPM_P1;HPM_P2
2022/02/24 00:00:44;;;;;;;8.68;3.85;;;;;;;;;;5068272;28;20199;-84
2022/02/24 00:03:11;;;;;;;4.30;3.90;;;4.70;99.90;;;;;;5059019;28;20286;-83
2022/02/24 00:05:38;;;;;;;3.90;3.63;;;4.70;99.90;;;;;;5069799;28;20235;-84
2022/02/24 00:08:05;;;;;;;5.18;3.90;;;4.80;99.90;;;;;;5069562;28;20199;-83
2022/02/24 00:10:32;;;;;;;4.47;4.07;;;;;;;;;;5068906;28;20199;-84
2022/02/24 00:12:59;;;;;;;6.75;4.00;;;4.80;99.90;;;;;;5069233;28;20221;-83
2022/02/24 00:15:26;;;;;;;3.90;3.50;;;4.90;99.90;;;;;;5061168;28;20265;-84
2022/02/24 00:17:54;;;;;;;5.78;3.67;;;4.90;98.40;;;;;;5068822;28;20616;-84
2022/02/24 00:20:21;;;;;;;4.82;4.10;;;4.30;98.70;;;;;;5069468;28;20282;-84
2022/02/24 00:22:48;;;;;;;4.30;3.90;;;;;;;;;;5068668;28;20200;-83
2022/02/24 00:25:15;;;;;;;4.22;3.83;;;5.20;99.90;;;;;;5068556;28;20793;-83
2022/02/24 00:27:42;;;;;;;3.53;2.90;;;;;;;;;;5069269;28;20424;-82
2022/02/24 00:30:10;;;;;;;5.45;3.60;;;4.70;99.90;;;;;;5068790;28;20253;-83
2022/02/24 00:32:37;;;;;;;4.38;3.85;;;4.80;99.90;;;;;;5068813;28;20284;-83
2022/02/24 00:35:06;;;;;;;3.70;3.40;;;5.00;99.90;;;;;;5068849;28;20862;-83
2022/02/24 00:37:33;;;;;;;4.15;3.60;;;5.00;99.90;;;;;;5068595;28;20253;-84
2022/02/24 00:40:01;;;;;;;3.88;3.47;;;;;;;;;;5067336;28;20200;-84
2022/02/24 00:42:28;;;;;;;4.25;3.60;;;;;;;;;;5068903;28;20242;-83
2022/02/24 00:44:55;;;;;;;3.20;2.90;;;4.90;99.90;;;;;;5068640;28;20231;-82
2022/02/24 00:47:22;;;;;;;7.05;4.53;;;5.20;99.90;;;;;;5068914;28;20887;-83
2022/02/24 00:49:49;;;;;;;4.22;3.35;;;6.10;98.50;;;;;;5062923;28;20222;-84
2022/02/24 00:52:17;;;;;;;4.20;3.90;;;5.30;99.40;;;;;;5061920;28;20208;-83
2022/02/24 00:54:47;;;;;;;4.00;3.70;;;;;;;;;;5067977;28;20535;-83
2022/02/24 00:57:13;;;;;;;3.38;2.97;;;5.60;99.90;;;;;;5067901;28;20231;-83
2022/02/24 00:59:41;;;;;;;4.65;3.15;;;;;;;;;;5067316;28;20223;-84
2022/02/24 01:02:08;;;;;;;3.50;3.20;;;;;;;;;;5067406;28;20682;-83
2022/02/24 01:04:36;;;;;;;4.63;3.67;;;5.40;99.90;;;;;;5065719;28;20257;-83
2022/02/24 01:07:03;;;;;;;4.82;4.03;;;6.00;99.90;;;;;;5067464;28;20203;-83
2022/02/24 01:09:32;;;;;;;4.07;3.72;;;5.90;97.70;;;;;;5067224;28;20256;-82
2022/02/24 01:12:01;;;;;;;7.20;4.32;;;;;;;;;;5067848;28;20203;-84
2022/02/24 01:14:28;;;;;;;3.85;3.55;;;;;;;;;;5067340;28;20199;-83
2022/02/24 01:16:56;;;;;;;4.07;3.35;;;;;;;;;;5067426;28;20319;-83
2022/02/24 01:19:24;;;;;;;4.18;3.42;;;5.40;99.90;;;;;;5066564;28;20249;-83
2022/02/24 01:21:52;;;;;;;4.05;2.55;;;;;;;;;;5067080;28;20199;-83
2022/02/24 01:24:20;;;;;;;5.30;3.78;;;;;;;;;;5067251;28;20191;-82
2022/02/24 01:26:51;;;;;;;3.80;3.15;;;;;;;;;;5067332;28;20204;-83
2022/02/24 01:29:19;;;;;;;3.70;3.40;;;5.70;99.90;;;;;;5067104;28;20661;-83
2022/02/24 01:31:46;;;;;;;3.70;3.40;;;5.50;99.30;;;;;;5067544;28;20202;-83
2022/02/24 01:34:14;;;;;;;4.03;3.47;;;;;;;;;;5066549;28;20591;-83
2022/02/24 01:36:41;;;;;;;4.38;3.05;;;4.80;98.00;;;;;;5067278;28;20237;-83
2022/02/24 01:39:09;;;;;;;3.90;3.10;;;5.40;99.90;;;;;;5066954;28;20230;-83
2022/02/24 01:41:36;;;;;;;3.30;3.00;;;;;;;;;;5050554;28;20199;-83
2022/02/24 01:44:10;;;;;;;3.50;3.20;;;5.40;98.20;;;;;;5061395;28;20231;-83
2022/02/24 01:46:37;;;;;;;6.38;3.15;;;5.20;98.80;;;;;;5064543;28;20199;-83
2022/02/24 01:49:05;;;;;;;3.50;3.20;;;5.50;99.90;;;;;;5067193;28;20237;-83
2022/02/24 01:51:32;;;;;;;4.80;2.83;;;5.10;99.90;;;;;;5067451;28;20199;-83
2022/02/24 01:54:00;;;;;;;6.05;3.90;;;5.40;99.90;;;;;;5061971;28;20191;-83
2022/02/24 01:56:26;;;;;;;7.70;4.20;;;5.00;99.60;;;;;;5066957;28;20219;-83
2022/02/24 01:58:54;;;;;;;4.35;3.95;;;5.00;99.90;;;;;;5063427;28;20724;-83
2022/02/24 02:01:23;;;;;;;5.55;3.35;;;5.00;99.90;;;;;;5067076;28;20203;-83
2022/02/24 02:03:51;;;;;;;5.68;3.83;;;5.30;99.90;;;;;;5067313;28;20207;-83
2022/02/24 02:06:18;;;;;;;3.95;3.10;;;5.10;99.90;;;;;;5066902;28;20233;-83
2022/02/24 02:08:45;;;;;;;3.40;3.20;;;;;;;;;;5067577;28;20199;-83
2022/02/24 02:11:13;;;;;;;4.07;3.70;;;;;;;;;;5067455;28;20203;-83
2022/02/24 02:13:41;;;;;;;4.38;3.33;;;;;;;;;;5067058;28;20207;-83
2022/02/24 02:16:10;;;;;;;3.95;3.58;;;;;;;;;;5067446;28;20231;-82
2022/02/24 02:18:41;;;;;;;6.53;3.50;;;5.70;99.90;;;;;;5067318;28;20199;-83
2022/02/24 02:21:10;;;;;;;6.22;3.38;;;4.90;99.90;;;;;;5071209;28;20300;-83
2022/02/24 02:23:37;;;;;;;6.95;3.33;;;;;;;;;;5071272;28;20206;-83
2022/02/24 02:26:05;;;;;;;5.68;3.60;;;;;;;;;;5070975;28;20684;-83
2022/02/24 02:28:32;;;;;;;4.82;3.45;;;4.90;99.90;;;;;;5070809;28;20242;-83
2022/02/24 02:30:59;;;;;;;4.05;3.50;;;5.10;99.90;;;;;;5071531;28;20207;-83
2022/02/24 02:33:26;;;;;;;3.30;3.00;;;5.20;99.90;;;;;;5070992;28;20215;-82
2022/02/24 02:35:54;;;;;;;4.25;3.22;;;;;;;;;;5071375;28;20229;-82
2022/02/24 02:38:23;;;;;;;4.00;3.60;;;5.00;99.90;;;;;;5070741;28;20201;-83
2022/02/24 02:40:51;;;;;;;5.20;3.72;;;;;;;;;;5055050;28;20224;-83
2022/02/24 02:43:18;;;;;;;5.20;3.40;;;4.50;98.60;;;;;;5060127;28;20202;-82
2022/02/24 02:45:45;;;;;;;6.15;3.95;;;5.00;99.50;;;;;;5070907;28;20199;-84
2022/02/24 02:48:13;;;;;;;4.43;3.55;;;5.20;99.90;;;;;;5070710;28;20206;-83
2022/02/24 02:50:40;;;;;;;4.43;3.80;;;;;;;;;;5070918;28;20199;-83
2022/02/24 02:53:07;;;;;;;3.13;2.83;;;4.90;99.90;;;;;;5057986;28;20208;-83
2022/02/24 02:55:36;;;;;;;3.50;3.20;;;5.30;98.80;;;;;;5061875;28;20214;-82
2022/02/24 02:58:03;;;;;;;3.00;2.70;;;4.90;99.90;;;;;;5070196;28;20629;-83
2022/02/24 03:00:30;;;;;;;3.72;3.30;;;5.30;99.00;;;;;;5061748;28;20294;-84
2022/02/24 03:02:57;;;;;;;3.90;3.60;;;5.70;99.90;;;;;;5069802;28;20631;-83
2022/02/24 03:05:24;;;;;;;3.78;3.47;;;;;;;;;;5070832;28;20215;-83
2022/02/24 03:07:51;;;;;;;4.05;3.65;;;5.50;99.90;;;;;;5069902;28;20234;-83
2022/02/24 03:10:18;;;;;;;3.50;3.20;;;;;;;;;;5070331;28;20195;-84
2022/02/24 03:12:47;;;;;;;2.78;2.58;;;5.30;99.20;;;;;;5070194;28;20214;-83
2022/02/24 03:15:15;;;;;;;4.05;3.50;;;5.20;99.40;;;;;;5070729;28;20286;-82
2022/02/24 03:17:42;;;;;;;4.13;3.10;;;5.70;99.90;;;;;;5070111;28;20223;-82
2022/02/24 03:20:11;;;;;;;4.38;3.40;;;5.30;99.40;;;;;;5069711;28;20548;-83
2022/02/24 03:22:38;;;;;;;3.88;2.92;;;5.10;99.90;;;;;;5069860;28;20245;-83
2022/02/24 03:25:06;;;;;;;4.57;4.00;;;4.90;99.90;;;;;;5069940;28;20191;-83
2022/02/24 03:27:33;;;;;;;3.92;3.45;;;5.40;99.90;;;;;;5070463;28;20204;-82
2022/02/24 03:30:02;;;;;;;3.45;3.08;;;;;;;;;;5069926;28;20195;-82
2022/02/24 03:32:28;;;;;;;3.97;3.30;;;5.40;99.90;;;;;;5068808;28;20225;-82
2022/02/24 03:34:55;;;;;;;5.47;2.92;;;5.30;99.90;;;;;;5063829;28;20256;-83
2022/02/24 03:37:22;;;;;;;3.67;3.03;;;;;;;;;;5069228;28;20285;-82
2022/02/24 03:39:49;;;;;;;4.68;3.72;;;6.10;99.90;;;;;;5069955;28;20227;-83
2022/02/24 03:42:16;;;;;;;3.67;3.38;;;5.50;99.90;;;;;;5069892;28;20210;-83
2022/02/24 03:44:45;;;;;;;3.25;3.00;;;;;;;;;;5070113;28;20203;-82
2022/02/24 03:47:13;;;;;;;3.63;3.33;;;5.60;99.90;;;;;;5069807;28;20893;-83
2022/02/24 03:49:40;;;;;;;3.92;3.33;;;6.10;99.90;;;;;;5068999;28;20257;-83
2022/02/24 03:52:08;;;;;;;3.67;3.05;;;5.70;99.00;;;;;;5069689;28;20195;-83
2022/02/24 03:54:35;;;;;;;2.90;2.60;;;5.50;99.90;;;;;;5069547;28;20191;-83
2022/02/24 03:57:02;;;;;;;9.55;3.10;;;5.80;99.90;;;;;;5068734;28;20969;-83
2022/02/24 03:59:29;;;;;;;3.30;3.10;;;5.70;99.90;;;;;;5069217;28;20222;-83
2022/02/24 04:01:56;;;;;;;3.92;3.40;;;5.50;99.90;;;;;;5069519;28;20213;-82
2022/02/24 04:04:24;;;;;;;3.60;2.78;;;5.60;98.70;;;;;;5060337;28;20560;-83
2022/02/24 04:06:51;;;;;;;3.60;3.05;;;5.30;99.90;;;;;;5069283;28;20256;-83
2022/02/24 04:09:18;;;;;;;4.43;3.55;;;;;;;;;;5069123;28;20282;-83
2022/02/24 04:11:45;;;;;;;3.38;3.08;;;5.70;99.90;;;;;;5069677;28;20199;-82
2022/02/24 04:14:12;;;;;;;3.67;2.95;;;;;;;;;;5068880;28;20653;-83
2022/02/24 04:16:39;;;;;;;3.78;3.30;;;5.40;99.90;;;;;;5068957;28;20230;-84
2022/02/24 04:19:06;;;;;;;3.30;3.00;;;;;;;;;;5068753;28;20323;-84
2022/02/24 04:21:35;;;;;;;4.43;3.40;;;;;;;;;;5069927;28;20207;-83
2022/02/24 04:24:03;;;;;;;6.00;3.35;;;;;;;;;;5068716;28;20203;-82
2022/02/24 04:26:30;;;;;;;5.07;3.33;;;;;;;;;;5068776;28;20223;-83
2022/02/24 04:28:57;;;;;;;4.65;3.67;;;;;;;;;;5067117;28;20206;-83
2022/02/24 04:31:24;;;;;;;5.30;3.60;;;;;;;;;;5065820;28;20364;-83
2022/02/24 04:33:51;;;;;;;3.17;2.92;;;;;;;;;;5068923;28;20211;-84
2022/02/24 04:36:18;;;;;;;4.68;4.15;;;5.00;99.90;;;;;;5068472;28;20211;-83
2022/02/24 04:38:47;;;;;;;3.63;3.30;;;5.40;99.90;;;;;;5068572;28;20203;-83
2022/02/24 04:41:13;;;;;;;4.45;4.05;;;5.60;99.90;;;;;;5054624;28;20283;-83
2022/02/24 04:43:40;;;;;;;4.72;3.90;;;5.30;99.90;;;;;;5058347;28;20223;-83
2022/02/24 04:46:07;;;;;;;6.07;3.35;;;5.60;99.90;;;;;;5068769;28;20304;-83
2022/02/24 04:48:34;;;;;;;5.32;3.45;;;5.50;98.80;;;;;;5068188;28;20257;-83
2022/02/24 04:51:01;;;;;;;4.47;3.63;;;5.70;98.80;;;;;;5068294;28;20545;-83
2022/02/24 04:53:29;;;;;;;3.22;2.90;;;5.70;98.60;;;;;;5068213;28;20257;-84
2022/02/24 04:55:57;;;;;;;3.13;2.92;;;5.60;98.70;;;;;;5068639;28;20203;-83
2022/02/24 04:58:24;;;;;;;5.90;3.70;;;;;;;;;;5067600;28;20227;-83
2022/02/24 05:00:52;;;;;;;6.13;2.97;;;;;;;;;;5067989;28;20227;-84
2022/02/24 05:03:18;;;;;;;4.70;3.78;;;5.40;99.90;;;;;;5057849;28;20204;-83
2022/02/24 05:05:46;;;;;;;4.57;3.40;;;;;;;;;;5063936;28;20199;-84
2022/02/24 05:08:12;;;;;;;5.50;4.25;;;5.50;99.90;;;;;;5068254;28;20286;-83
2022/02/24 05:10:40;;;;;;;5.40;3.50;;;;;;;;;;5067564;28;20219;-83
2022/02/24 05:13:08;;;;;;;4.47;4.00;;;5.50;98.60;;;;;;5068840;28;20213;-83
2022/02/24 05:15:35;;;;;;;4.05;3.20;;;5.60;99.90;;;;;;5068108;28;20818;-83
2022/02/24 05:18:02;;;;;;;4.63;3.70;;;;;;;;;;5067915;28;20339;-84
2022/02/24 05:20:30;;;;;;;3.75;2.92;;;5.10;99.60;;;;;;5068359;28;20207;-83
2022/02/24 05:22:57;;;;;;;2.85;2.65;;;;;;;;;;5067922;28;20579;-83
2022/02/24 05:25:24;;;;;;;4.60;4.00;;;5.40;99.90;;;;;;5062228;28;20229;-83
2022/02/24 05:27:51;;;;;;;4.18;3.60;;;5.50;99.90;;;;;;5068107;28;20199;-83
2022/02/24 05:30:20;;;;;;;6.30;4.65;;;5.40;98.60;;;;;;5068035;28;20192;-83
2022/02/24 05:32:47;;;;;;;6.40;4.30;;;;;;;;;;5068097;28;20226;-83
2022/02/24 05:35:14;;;;;;;4.85;4.28;;;5.10;99.90;;;;;;5068195;28;20673;-83
2022/02/24 05:37:43;;;;;;;3.47;3.10;;;;;;;;;;5066929;28;20314;-83
2022/02/24 05:40:10;;;;;;;4.43;4.03;;;5.00;99.90;;;;;;5062417;28;20192;-83
2022/02/24 05:42:37;;;;;;;4.75;4.00;;;5.60;99.90;;;;;;5048661;28;20206;-82
2022/02/24 05:45:04;;;;;;;5.43;4.10;;;5.20;99.90;;;;;;5067765;28;20203;-83
2022/02/24 05:47:33;;;;;;;4.70;4.20;;;;;;;;;;5066589;28;20736;-83
2022/02/24 05:49:59;;;;;;;4.60;4.20;;;4.70;99.90;;;;;;5067398;28;20205;-84
2022/02/24 05:52:26;;;;;;;4.60;3.92;;;4.80;99.90;;;;;;5066833;28;20749;-83
2022/02/24 05:54:53;;;;;;;5.25;3.90;;;;;;;;;;5066718;28;20217;-83
2022/02/24 05:57:20;;;;;;;5.45;4.15;;;5.20;99.90;;;;;;5067865;28;20229;-83
2022/02/24 05:59:47;;;;;;;5.50;4.72;;;;;;;;;;5060598;28;20568;-84
2022/02/24 06:02:14;;;;;;;4.95;4.43;;;4.90;99.90;;;;;;5067829;28;20298;-83
2022/02/24 06:04:42;;;;;;;6.35;4.78;;;5.80;99.50;;;;;;5066476;28;20678;-83
2022/02/24 06:07:09;;;;;;;5.15;4.65;;;;;;;;;;5052884;28;20285;-83
2022/02/24 06:09:36;;;;;;;4.93;4.47;;;4.80;99.90;;;;;;5061947;28;20199;-83
2022/02/24 06:12:04;;;;;;;5.80;5.20;;;5.00;99.30;;;;;;5067634;28;20281;-82
2022/02/24 06:14:31;;;;;;;10.13;5.95;;;;;;;;;;5062414;28;20226;-82
2022/02/24 06:17:00;;;;;;;7.75;4.88;;;4.90;99.40;;;;;;5067191;28;20201;-82
2022/02/24 06:19:27;;;;;;;5.57;4.95;;;;;;;;;;5063817;28;20293;-82
2022/02/24 06:21:56;;;;;;;5.80;5.20;;;5.00;99.90;;;;;;5066720;28;20203;-83
2022/02/24 06:24:24;;;;;;;10.18;6.05;;;4.80;99.90;;;;;;5067803;28;20329;-83
2022/02/24 06:26:52;;;;;;;7.10;5.25;;;;;;;;;;5068152;28;20750;-83
2022/02/24 06:29:18;;;;;;;7.43;5.45;;;5.00;99.90;;;;;;5067608;28;20249;-83
2022/02/24 06:31:46;;;;;;;7.25;5.65;;;;;;;;;;5065460;28;20199;-83
2022/02/24 06:34:12;;;;;;;7.28;6.40;;;5.00;99.90;;;;;;5061659;28;20213;-83
2022/02/24 06:36:40;;;;;;;7.40;5.43;;;;;;;;;;5048565;28;20294;-83
2022/02/24 06:39:08;;;;;;;6.15;5.55;;;5.10;99.90;;;;;;5057060;28;20286;-82
2022/02/24 06:41:35;;;;;;;11.13;5.78;;;4.50;99.90;;;;;;5068011;28;20574;-83
2022/02/24 06:44:02;;;;;;;6.32;5.72;;;4.90;99.90;;;;;;5067743;28;20201;-83
2022/02/24 06:46:29;;;;;;;7.55;5.90;;;;;;;;;;5052904;28;20287;-83
2022/02/24 06:48:56;;;;;;;10.07;6.20;;;5.70;99.90;;;;;;5053832;28;20211;-83
2022/02/24 06:51:23;;;;;;;8.60;7.18;;;5.00;99.90;;;;;;5057503;28;20192;-83
2022/02/24 06:53:50;;;;;;;8.38;5.90;;;5.00;99.90;;;;;;5067114;28;20203;-83
2022/02/24 06:56:18;;;;;;;7.95;6.75;;;4.90;99.90;;;;;;5067437;28;20667;-83
2022/02/24 06:58:45;;;;;;;8.40;6.85;;;4.90;99.90;;;;;;5067141;28;20223;-83
2022/02/24 07:01:15;;;;;;;7.68;6.25;;;4.90;99.90;;;;;;5067304;28;20222;-83
2022/02/24 07:03:42;;;;;;;6.35;5.75;;;4.90;99.90;;;;;;5052091;28;20440;-82
2022/02/24 07:06:15;;;;;;;8.07;6.75;;;5.10;99.90;;;;;;5048972;28;20204;-82
2022/02/24 07:08:42;;;;;;;8.45;7.00;;;5.30;99.90;;;;;;5053237;28;20200;-83
2022/02/24 07:11:09;;;;;;;10.82;8.55;;;5.20;99.90;;;;;;5070967;28;20187;-82
2022/02/24 07:13:37;;;;;;;19.05;8.00;;;3.50;99.90;;;;;;5068035;28;20202;-82
2022/02/24 07:16:04;;;;;;;8.43;6.65;;;5.20;99.90;;;;;;5063553;28;20247;-83
2022/02/24 07:18:31;;;;;;;13.98;6.90;;;5.20;99.90;;;;;;5069484;28;20230;-83
2022/02/24 07:20:58;;;;;;;8.18;6.90;;;5.20;99.90;;;;;;5050663;28;20208;-83
2022/02/24 07:23:25;;;;;;;14.57;6.55;;;5.30;99.90;;;;;;5056685;28;20206;-85
2022/02/24 07:25:53;;;;;;;9.18;7.10;;;5.40;99.90;;;;;;5051823;28;20286;-85
2022/02/24 07:28:20;;;;;;;11.80;7.45;;;5.30;99.90;;;;;;5056060;28;20196;-85
2022/02/24 07:30:49;;;;;;;13.60;7.22;;;5.40;99.80;;;;;;5071744;28;20937;-84
2022/02/24 07:33:16;;;;;;;8.77;7.25;;;5.60;99.90;;;;;;5071217;28;20248;-84
2022/02/24 07:35:43;;;;;;;8.80;7.30;;;5.70;99.90;;;;;;5071262;28;20278;-84
2022/02/24 07:38:10;;;;;;;9.40;6.30;;;5.60;99.90;;;;;;5062037;28;20251;-84
2022/02/24 07:40:37;;;;;;;8.00;7.00;;;6.30;99.90;;;;;;5071001;28;20260;-85
2022/02/24 07:43:04;;;;;;;12.45;7.53;;;5.80;99.90;;;;;;5071166;28;20665;-84
2022/02/24 07:45:32;;;;;;;8.07;6.82;;;5.60;99.90;;;;;;5070344;28;20192;-84
2022/02/24 07:48:00;;;;;;;7.28;6.57;;;5.60;99.50;;;;;;5069098;28;20203;-85
2022/02/24 07:50:27;;;;;;;15.63;7.43;;;6.00;99.90;;;;;;5070528;28;20199;-85
2022/02/24 07:52:54;;;;;;;7.53;6.63;;;5.80;99.70;;;;;;5062493;28;20844;-85
2022/02/24 07:55:21;;;;;;;9.10;7.97;;;6.00;99.90;;;;;;5052070;28;20294;-84
2022/02/24 07:57:48;;;;;;;8.32;6.93;;;6.00;99.90;;;;;;5057701;28;20631;-85
2022/02/24 08:00:16;;;;;;;8.13;7.20;;;5.90;99.90;;;;;;5063316;28;20231;-84
2022/02/24 08:02:44;;;;;;;9.63;7.22;;;6.00;99.40;;;;;;5063389;28;20196;-85
2022/02/24 08:05:16;;;;;;;8.00;6.28;;;6.20;99.20;;;;;;5067179;28;20195;-84
2022/02/24 08:07:43;;;;;;;9.02;6.95;;;6.80;99.90;;;;;;5070845;28;20218;-85
2022/02/24 08:10:10;;;;;;;7.32;6.43;;;7.00;99.90;;;;;;5066635;28;20282;-84
2022/02/24 08:12:40;;;;;;;6.97;6.25;;;6.20;99.90;;;;;;5070570;28;20192;-84
2022/02/24 08:15:08;;;;;;;10.85;7.03;;;6.50;99.90;;;;;;5071033;28;20203;-84
2022/02/24 08:17:35;;;;;;;7.10;6.45;;;6.40;99.00;;;;;;5069576;28;20737;-84
2022/02/24 08:20:05;;;;;;;6.50;5.90;;;6.50;99.00;;;;;;5067966;28;20200;-84
2022/02/24 08:22:33;;;;;;;6.85;6.15;;;6.70;99.90;;;;;;5063055;28;20271;-85
2022/02/24 08:25:00;;;;;;;8.43;6.03;;;6.80;98.50;;;;;;5065993;28;20727;-84
2022/02/24 08:27:27;;;;;;;6.35;5.60;;;6.80;98.40;;;;;;5065849;28;20219;-85
2022/02/24 08:29:54;;;;;;;5.10;4.53;;;7.00;98.40;;;;;;5067431;28;20203;-84
2022/02/24 08:32:21;;;;;;;11.18;5.07;;;7.10;97.80;;;;;;5057835;28;20258;-84
2022/02/24 08:34:48;;;;;;;8.65;5.18;;;7.50;99.90;;;;;;5068497;28;20261;-84
2022/02/24 08:37:15;;;;;;;5.60;5.10;;;7.40;99.90;;;;;;5054976;28;20192;-84
2022/02/24 08:39:43;;;;;;;5.00;4.50;;;7.70;99.90;;;;;;5056136;28;20292;-84
2022/02/24 08:42:14;;;;;;;6.03;5.40;;;7.70;96.40;;;;;;5057847;28;20209;-85
2022/02/24 08:44:43;;;;;;;5.07;4.60;;;7.70;96.60;;;;;;5053501;28;20236;-84
2022/02/24 08:47:11;;;;;;;6.07;5.32;;;7.80;96.50;;;;;;5068766;28;20239;-84
2022/02/24 08:49:38;;;;;;;4.18;3.85;;;;;;;;;;5051861;28;20237;-84
2022/02/24 08:52:06;;;;;;;5.80;4.40;;;7.80;99.90;;;;;;5069067;28;20240;-85
2022/02/24 08:54:33;;;;;;;8.13;4.40;;;8.10;99.90;;;;;;5069968;28;20224;-84
2022/02/24 08:57:01;;;;;;;4.97;4.15;;;8.20;95.30;;;;;;5059615;28;20197;-85
2022/02/24 08:59:29;;;;;;;4.78;4.30;;;8.20;95.60;;;;;;5051334;28;20232;-85
2022/02/24 09:01:56;;;;;;;7.18;4.15;;;;;;;;;;5064399;28;20285;-84
2022/02/24 09:04:23;;;;;;;4.15;3.70;;;8.60;99.90;;;;;;5060621;28;20197;-83
2022/02/24 09:06:50;;;;;;;5.45;4.38;;;8.60;99.90;;;;;;5060348;28;20764;-85
2022/02/24 09:09:17;;;;;;;4.97;4.13;;;8.80;95.00;;;;;;5055607;28;20694;-85
2022/02/24 09:11:44;;;;;;;5.72;3.75;;;;;;;;;;5061534;28;20630;-85
2022/02/24 09:14:13;;;;;;;4.95;3.40;;;;;;;;;;5064764;28;20218;-84
2022/02/24 09:16:43;;;;;;;4.03;3.50;;;;;;;;;;5069023;28;20195;-85
2022/02/24 09:19:10;;;;;;;4.53;3.63;;;9.40;94.00;;;;;;5069082;28;20674;-86
2022/02/24 09:21:37;;;;;;;3.40;3.10;;;9.40;93.50;;;;;;5068400;28;20729;-85
2022/02/24 09:24:05;;;;;;;3.23;3.03;;;9.60;93.70;;;;;;5063047;28;20656;-86
2022/02/24 09:26:33;;;;;;;2.83;2.50;;;9.70;99.90;;;;;;5069138;28;20679;-85
2022/02/24 09:29:00;;;;;;;3.70;2.90;;;9.60;93.70;;;;;;5067291;28;20725;-84
2022/02/24 09:31:28;;;;;;;3.33;2.70;;;9.30;99.90;;;;;;5068799;28;20712;-84
2022/02/24 09:33:55;;;;;;;2.77;2.40;;;9.90;99.90;;;;;;5068607;28;21316;-86
2022/02/24 09:36:22;;;;;;;3.00;2.70;;;9.60;99.90;;;;;;5067695;28;20721;-85
2022/02/24 09:38:50;;;;;;;6.43;2.37;;;9.70;92.90;;;;;;5068205;28;21222;-85
2022/02/24 09:41:18;;;;;;;3.50;2.43;;;9.80;92.60;;;;;;5068686;28;20651;-85
2022/02/24 09:43:46;;;;;;;2.70;2.40;;;9.70;97.00;;;;;;5067323;28;20633;-85
2022/02/24 09:46:16;;;;;;;4.07;2.77;;;10.10;91.00;;;;;;5068270;28;20629;-85
2022/02/24 09:48:46;;;;;;;2.97;2.63;;;8.40;90.80;;;;;;5068155;28;20683;-85
2022/02/24 09:51:16;;;;;;;4.00;2.40;;;10.20;90.70;;;;;;5069663;28;20618;-85
2022/02/24 09:53:44;;;;;;;2.47;2.27;;;10.00;94.60;;;;;;5068944;28;20636;-85
2022/02/24 09:56:15;;;;;;;3.90;2.17;;;10.30;96.10;;;;;;5067818;28;20670;-85
2022/02/24 09:58:42;;;;;;;3.33;2.40;;;10.30;90.70;;;;;;5064545;28;20772;-85
2022/02/24 10:01:12;;;;;;;5.30;2.60;;;10.30;91.10;;;;;;5067713;28;20675;-85
2022/02/24 10:03:43;;;;;;;4.20;2.40;;;10.30;90.50;;;;;;5056432;28;20646;-84
2022/02/24 10:06:13;;;;;;;2.83;2.00;;;10.40;90.70;;;;;;5068216;28;21221;-85
2022/02/24 10:08:41;;;;;;;3.57;2.43;;;10.70;90.50;;;;;;5061084;28;20626;-84
2022/02/24 10:11:18;;;;;;;2.37;2.00;;;11.30;96.20;;;;;;5067755;28;20656;-84
2022/02/24 10:13:57;;;;;;;2.30;1.70;;;10.50;87.50;;;;;;5068174;28;20633;-85
2022/02/24 10:16:25;;;;;;;4.77;2.47;;;11.30;87.70;;;;;;5068077;28;20686;-85
2022/02/24 10:18:52;;;;;;;2.10;1.73;;;11.70;94.70;;;;;;5066376;28;21384;-84
2022/02/24 10:21:26;;;;;;;7.40;1.83;;;11.80;94.00;;;;;;5067904;28;20614;-86
2022/02/24 10:23:53;;;;;;;5.20;2.20;;;11.60;85.20;;;;;;5067761;28;20629;-85
2022/02/24 10:26:21;;;;;;;3.13;1.90;;;11.70;84.50;;;;;;5068551;28;20625;-86
2022/02/24 10:28:50;;;;;;;1.80;1.50;;;11.70;93.20;;;;;;5067083;28;21372;-85
2022/02/24 10:31:18;;;;;;;3.57;1.87;;;11.90;85.60;;;;;;5055954;28;20657;-85
2022/02/24 10:33:47;;;;;;;7.60;2.33;;;12.20;93.50;;;;;;5063532;28;20657;-85
2022/02/24 10:36:17;;;;;;;2.37;1.70;;;12.00;94.20;;;;;;5062890;28;20634;-85
2022/02/24 10:39:02;;;;;;;4.90;2.07;;;12.00;83.70;;;;;;5063965;28;20757;-85
2022/02/24 10:41:31;;;;;;;5.20;2.37;;;12.00;83.10;;;;;;5065687;28;20621;-84
2022/02/24 10:44:21;;;;;;;2.03;1.93;;;11.70;87.00;;;;;;5071566;28;20630;-87
2022/02/24 10:46:49;;;;;;;2.50;2.03;;;12.00;83.10;;;;;;5065156;28;20661;-85
2022/02/24 10:49:31;;;;;;;5.50;1.90;;;12.00;82.00;;;;;;5071488;28;20625;-85
2022/02/24 10:52:13;;;;;;;3.20;2.30;;;12.10;81.00;;;;;;5072015;28;20647;-85
2022/02/24 10:54:45;;;;;;;2.33;2.00;;;11.80;90.70;;;;;;5069724;28;20644;-85
2022/02/24 10:57:19;;;;;;;2.60;2.00;;;12.10;80.60;;;;;;5067258;28;20621;-86
2022/02/24 10:59:46;;;;;;;2.40;2.20;;;12.10;81.60;;;;;;5057507;28;20662;-86
2022/02/24 11:02:13;;;;;;;2.43;2.17;;;12.10;81.60;;;;;;5068490;28;20613;-86
2022/02/24 11:04:42;;;;;;;3.23;2.30;;;12.10;81.00;;;;;;5052472;28;21227;-87
2022/02/24 11:07:09;;;;;;;1.97;1.53;;;12.30;91.30;;;;;;5056496;28;20626;-87
2022/02/24 11:09:39;;;;;;;2.57;1.97;;;12.10;80.00;;;;;;5067575;28;20634;-87
2022/02/24 11:12:09;;;;;;;2.17;1.97;;;12.30;80.50;;;;;;5069132;28;20622;-87
2022/02/24 11:14:39;;;;;;;3.60;2.03;;;12.30;80.30;;;;;;5066078;28;20640;-87
2022/02/24 11:17:09;;;;;;;3.65;2.67;;;12.30;91.50;;;;;;5069729;28;20822;-86
2022/02/24 11:19:37;;;;;;;2.60;2.33;;;12.50;91.20;;;;;;5068950;28;20211;-86
2022/02/24 11:22:05;;;;;;;2.03;1.73;;;12.60;84.40;;;;;;5057688;28;21049;-86
2022/02/24 11:24:32;;;;;;;9.40;2.00;;;12.70;79.40;;;;;;5071109;28;20613;-86
2022/02/24 11:27:05;;;;;;;1.80;1.70;;;12.70;79.00;;;;;;5061808;28;20613;-86
2022/02/24 11:29:40;;;;;;;6.63;1.87;;;12.70;77.00;;;;;;5060652;28;20635;-87
2022/02/24 11:32:09;;;;;;;5.00;1.70;;;12.90;87.60;;;;;;5069523;28;20626;-85
2022/02/24 11:34:58;;;;;;;6.37;1.57;;;13.00;88.60;;;;;;5060571;28;21199;-88
2022/02/24 11:37:27;;;;;;;2.03;1.83;;;12.80;75.20;;;;;;5066241;28;20985;-86
2022/02/24 11:40:03;;;;;;;3.90;1.67;;;12.90;74.60;;;;;;5069008;28;21051;-87
2022/02/24 11:42:32;;;;;;;1.70;1.60;;;13.40;80.00;;;;;;5068779;28;20756;-86
2022/02/24 11:45:01;;;;;;;3.23;1.63;;;13.00;75.40;;;;;;5067255;28;20741;-86
2022/02/24 11:47:28;;;;;;;7.60;1.50;;;13.10;75.10;;;;;;5057144;28;20729;-86
2022/02/24 11:50:16;;;;;;;2.27;1.93;;;12.80;82.70;;;;;;5064361;28;20630;-86
2022/02/24 11:52:52;;;;;;;3.17;1.70;;;12.90;74.40;;;;;;5054358;28;20665;-86
2022/02/24 11:55:41;;;;;;;1.53;1.23;;;12.80;82.70;;;;;;5056171;28;20685;-87
2022/02/24 11:58:46;;;;;;;2.70;1.60;;;13.00;69.40;;;;;;5056666;28;20984;-87
2022/02/24 12:01:24;;;;;;;1.73;1.37;;;12.90;72.10;;;;;;5005352;28;21025;-88
2022/02/24 12:03:56;;;;;;;2.40;1.40;;;12.70;80.20;;;;;;5061657;28;20679;-87
2022/02/24 12:06:38;;;;;;;2.90;1.60;;;12.80;67.50;;;;;;5063685;28;20607;-86
2022/02/24 12:09:07;;;;;;;2.07;1.27;;;12.80;67.80;;;;;;5065275;28;20641;-87
2022/02/24 12:11:39;;;;;;;1.73;1.30;;;13.30;72.00;;;;;;5070018;28;20630;-86
2022/02/24 12:14:28;;;;;;;2.97;1.63;;;13.00;67.50;;;;;;5070192;28;20621;-86
2022/02/24 12:17:14;;;;;;;1.90;1.70;;;13.30;80.30;;;;;;5050977;28;20626;-86
2022/02/24 12:19:44;;;;;;;3.40;1.50;;;12.90;66.00;;;;;;5057510;28;20654;-86
2022/02/24 12:22:16;;;;;;;1.77;1.40;;;12.80;78.80;;;;;;5063915;28;20683;-87
2022/02/24 12:24:47;;;;;;;1.87;1.67;;;13.10;79.20;;;;;;5063836;28;20666;-87
2022/02/24 12:27:40;;;;;;;2.60;1.73;;;13.00;67.00;;;;;;5071206;28;20645;-87
2022/02/24 12:30:19;;;;;;;2.63;1.40;;;13.10;65.80;;;;;;5048883;28;20630;-87
2022/02/24 12:32:50;;;;;;;1.90;1.53;;;13.00;65.80;;;;;;5063167;28;21183;-86
2022/02/24 12:35:19;;;;;;;1.73;1.30;;;13.20;80.70;;;;;;5069792;28;20615;-87
2022/02/24 12:37:49;;;;;;;3.03;1.40;;;13.00;67.10;;;;;;5070032;28;20636;-86
2022/02/24 12:40:24;;;;;;;3.87;1.40;;;13.00;66.80;;;;;;5066215;28;21257;-86
2022/02/24 12:42:51;;;;;;;3.87;1.40;;;12.80;72.00;;;;;;5063997;28;20629;-87
2022/02/24 12:45:19;;;;;;;2.80;1.73;;;12.80;68.20;;;;;;5063484;28;20638;-87
2022/02/24 12:47:50;;;;;;;1.63;1.40;;;12.90;68.20;;;;;;5058215;28;20657;-86
2022/02/24 12:50:25;;;;;;;1.77;1.37;;;12.70;79.50;;;;;;5049619;28;20765;-87
2022/02/24 12:52:52;;;;;;;2.30;1.20;;;12.70;66.00;;;;;;5060463;28;21323;-86
2022/02/24 12:55:20;;;;;;;1.90;1.27;;;12.50;81.60;;;;;;5062871;28;20717;-85
2022/02/24 12:57:47;;;;;;;1.63;1.53;;;12.70;68.30;;;;;;5050148;28;20622;-87
2022/02/24 13:00:14;;;;;;;1.40;1.17;;;12.60;66.30;;;;;;5060162;28;20726;-86
2022/02/24 13:02:42;;;;;;;3.30;1.73;;;12.50;81.80;;;;;;5060172;28;20630;-87
2022/02/24 13:05:11;;;;;;;4.57;1.73;;;12.60;68.80;;;;;;5067601;28;20630;-87
2022/02/24 13:10:35;;;;;;;1.77;1.30;;;12.60;68.80;;;;;;5062644;28;20632;-86
2022/02/24 13:13:03;;;;;;;1.63;1.53;;;12.60;67.50;;;;;;5069742;28;21178;-87
2022/02/24 13:15:31;;;;;;;1.53;1.43;;;;;;;;;;5067233;28;20963;-85
2022/02/24 13:17:58;;;;;;;3.00;1.67;;;12.50;82.10;;;;;;5068973;28;20634;-87
2022/02/24 13:20:29;;;;;;;3.70;1.17;;;12.10;74.40;;;;;;5067636;28;20693;-85
2022/02/24 13:22:57;;;;;;;1.20;1.10;;;12.00;78.90;;;;;;5069971;28;20606;-85